Price, Texas
Current Conditions -  °F | °C
As of 8:15 PM on Saturday 22 Nov 2014 (Local Time) from KRFI Reporting Station
Thunderstorm Thunderstorm  
Wind Chill: 16°   Ceiling: 600
Heat Index: 16°   Visibility: 7mi
Dew Point: 17°   Wind: 12mph
Humidity: 100%   Direction: 120°ESE
Pressure: 29.83"   Gusts: 17mph
Location:  32.13°N, 94.94°W
Report Text: KRFI 230215Z AUTO 12010G15KT 7SM VCTSRA OVC006 17/17 A2983 RMK AO2 LTG DSNT S AND SW T01650165
Loading
Personal Weather Stations






























Interactive Weather Map New forecast layout! Learn more

10-Day Weather Forecast

Advertisements
Track Severe Weather on mobile